סלוניקי, יוון

12:40 PM EEST , ספטמבר 18, 2014 (GMT +0300)
Makedonia | Change Station
CLOSE
Current Station
Airport
Location: Thessaloniki,
Elevation: 13 ft
Nearby Weather Stations
Active Advisory: Thunderstorms

Elev 13 ft 40.52 °N, 22.97 °E | Updated 20 minutes ago

Light Rain
גשם קל
68 ° F
Feels Like 68 ° F
צפ
5
רוח משתנה רוח from צפון

היום
High -- | Low -- ° F
--% Chance of Precip.
אתמול
High -- | Low -- ° F
Precip. -- אינץ
7:11 AM 7:32 PM
סהרון מחסיר, 28% visible
לחץ 30.09 אינץ
ראות 6.2 מיילים
עננים Few 1000 ft
מעונן ברובו 3000 ft
מעונן 7000 ft
טמפ עיבוי 61 ° F
לחות 78%
גשם 0.00 אינץ
עומק השלג Not available.
UV 2 out of 12
Pollen Not available.
איכות האוויר Not available.
Flu Activity Not available.
METAR LGTS 180920Z 36004KT 9999 -RA FEW010 BKN030 OVC070 20/16 Q1019 NOSIG

More Conditions Fewer Conditions

לחץ 30.09 אינץ
ראות 6.2 מיילים
עננים Few 1000 ft
מעונן ברובו 3000 ft
מעונן 7000 ft
טמפ עיבוי 61 ° F
לחות 78%
גשם 0.00 אינץ
עומק השלג Not available.
UV 2 out of 12
Pollen Not available.
איכות האוויר Not available.
Flu Activity Not available.
METAR LGTS 180920Z 36004KT 9999 -RA FEW010 BKN030 OVC070 20/16 Q1019 NOSIG

More Conditions Fewer Conditions

10-Day Weather Forecast

Almanac

אסטרונומיה

Sep. 18, 2014 Rise Set
Actual Time 7:11 AM EEST 7:32 PM EEST
Civil Twilight 6:44 AM EEST 7:59 PM EEST
Nautical Twilight 6:12 AM EEST 8:31 PM EEST
Astronomical Twilight 5:39 AM EEST 9:04 PM EEST
ירח 1:46 AM EEST 4:12 PM EEST
Length Of Visible Light 13h 15m
אורך היום
12h 21m
Tomorrow will be 2m 39s shorter.
סהרון מחסיר, 28% of the Moon is Illuminated
היום
סהרון מחסיר
Sep 24
New
Oct 1
רבע ראשון
Oct 8
ירח מלא
Oct 15
רבע אחרון

Yesterday's Extremes

Country Highs Country Lows

Community

WunderPhotos

Upload Photos

1,754,312 photos uploaded!

Nearby

איכות האוויר

Not available.

עומק שלג

Not available.

Earthquake Activity

עיר Distance Mag. Time & Date
No recent earthquake activity has been reported nearby.
Minimum magnitude displayed is 2.5.

Coastal Water Temperatures

מקום טמפרטורה
No Stations Reporting

Nearby Weather Stations